createdAt,value
2023-04-22T00:01:14.730Z,8.88
2023-04-22T00:03:42.261Z,9.01
2023-04-22T00:06:08.909Z,8.99
2023-04-22T00:08:35.454Z,8.99
2023-04-22T00:11:02.283Z,8.97
2023-04-22T00:13:28.773Z,8.98
2023-04-22T00:15:55.245Z,8.97
2023-04-22T00:18:21.908Z,8.97
2023-04-22T00:20:48.400Z,8.98
2023-04-22T00:23:14.860Z,8.64
2023-04-22T00:25:41.408Z,8.99
2023-04-22T00:28:08.111Z,8.99
2023-04-22T00:30:35.912Z,9.03
2023-04-22T00:33:02.480Z,9.07
2023-04-22T00:35:28.982Z,9.11
2023-04-22T00:37:55.872Z,9.16
2023-04-22T00:40:22.561Z,9.19
2023-04-22T00:42:50.648Z,9.21
2023-04-22T00:45:18.093Z,9.26
2023-04-22T00:47:45.594Z,9.27
2023-04-22T00:50:12.335Z,9.26
2023-04-22T00:52:39.111Z,9.01
2023-04-22T00:55:06.088Z,9.20
2023-04-22T00:57:32.845Z,9.19
2023-04-22T00:59:59.420Z,9.17
2023-04-22T01:02:26.226Z,9.18
2023-04-22T01:04:54.538Z,9.16
2023-04-22T01:07:21.731Z,9.16
2023-04-22T01:09:48.169Z,9.10
2023-04-22T01:12:14.588Z,9.13
2023-04-22T01:14:41.926Z,9.11
2023-04-22T01:17:10.122Z,9.09
2023-04-22T01:19:37.838Z,8.92
2023-04-22T01:22:07.573Z,9.05
2023-04-22T01:24:34.587Z,9.06
2023-04-22T01:27:01.953Z,9.08
2023-04-22T01:29:28.693Z,9.00
2023-04-22T01:31:55.896Z,9.01
2023-04-22T01:34:22.671Z,9.03
2023-04-22T01:36:50.399Z,9.09
2023-04-22T01:39:16.850Z,8.96
2023-04-22T01:41:43.265Z,9.07
2023-04-22T01:44:10.572Z,9.19
2023-04-22T01:46:37.190Z,9.25
2023-04-22T01:49:03.836Z,9.32
2023-04-22T01:51:31.268Z,9.36
2023-04-22T01:53:57.921Z,9.37
2023-04-22T01:56:24.471Z,9.40
2023-04-22T01:58:50.922Z,9.43
2023-04-22T02:01:17.333Z,9.47
2023-04-22T02:03:43.811Z,9.47
2023-04-22T02:06:10.234Z,9.48
2023-04-22T02:08:36.736Z,9.46
2023-04-22T02:11:03.214Z,9.49
2023-04-22T02:13:40.230Z,9.52
2023-04-22T02:16:07.242Z,9.53
2023-04-22T02:18:34.016Z,9.52
2023-04-22T02:21:00.454Z,9.54
2023-04-22T02:23:27.584Z,9.57
2023-04-22T02:25:55.945Z,9.56
2023-04-22T02:28:22.756Z,9.45
2023-04-22T02:30:49.268Z,9.56
2023-04-22T02:33:15.694Z,9.51
2023-04-22T02:35:42.130Z,9.53
2023-04-22T02:38:08.613Z,9.53
2023-04-22T02:40:35.079Z,8.96
2023-04-22T02:43:01.537Z,9.50
2023-04-22T02:45:28.004Z,9.31
2023-04-22T02:47:54.852Z,9.48
2023-04-22T02:50:21.706Z,9.46
2023-04-22T02:52:48.154Z,9.48
2023-04-22T02:55:14.566Z,9.46
2023-04-22T02:57:41.049Z,9.40
2023-04-22T03:00:08.388Z,9.33
2023-04-22T03:02:34.961Z,9.30
2023-04-22T03:05:01.938Z,9.27
2023-04-22T03:07:28.404Z,9.22
2023-04-22T03:09:55.970Z,9.26
2023-04-22T03:12:22.528Z,9.08
2023-04-22T03:14:49.041Z,9.23
2023-04-22T03:17:15.516Z,9.26
2023-04-22T03:19:42.378Z,9.28
2023-04-22T03:22:09.055Z,9.30
2023-04-22T03:24:35.754Z,9.16
2023-04-22T03:27:02.305Z,9.26
2023-04-22T03:29:28.717Z,9.25
2023-04-22T03:31:55.318Z,9.23
2023-04-22T03:34:22.023Z,9.17
2023-04-22T03:36:48.450Z,9.08
2023-04-22T03:39:14.998Z,9.01
2023-04-22T03:41:41.360Z,9.00
2023-04-22T03:44:07.821Z,8.92
2023-04-22T03:46:34.597Z,8.85
2023-04-22T03:49:01.580Z,9.05
2023-04-22T03:51:28.989Z,9.04
2023-04-22T03:53:55.524Z,9.10
2023-04-22T03:56:21.977Z,9.11
2023-04-22T03:58:48.408Z,9.11
2023-04-22T04:01:14.955Z,9.11
2023-04-22T04:03:42.023Z,9.06
2023-04-22T04:06:09.434Z,9.06
2023-04-22T04:08:35.840Z,9.10
2023-04-22T04:11:02.225Z,9.13
2023-04-22T04:13:32.167Z,9.11
2023-04-22T04:16:01.526Z,9.00
2023-04-22T04:18:29.588Z,9.01
2023-04-22T04:20:56.478Z,9.19
2023-04-22T04:23:23.342Z,9.21
2023-04-22T04:25:49.914Z,9.17
2023-04-22T04:28:17.560Z,9.18
2023-04-22T04:30:44.022Z,9.23
2023-04-22T04:33:12.277Z,9.25
2023-04-22T04:35:39.255Z,9.26
2023-04-22T04:38:06.161Z,9.28
2023-04-22T04:40:33.857Z,9.37
2023-04-22T04:43:02.525Z,9.42
2023-04-22T04:45:29.869Z,9.47
2023-04-22T04:47:56.537Z,9.14
2023-04-22T04:50:23.148Z,9.51
2023-04-22T04:52:49.902Z,9.56
2023-04-22T04:55:17.123Z,9.59
2023-04-22T04:57:47.062Z,9.58
2023-04-22T05:00:16.699Z,9.58
2023-04-22T05:02:43.347Z,9.60
2023-04-22T05:05:10.229Z,9.61
2023-04-22T05:07:36.731Z,9.65
2023-04-22T05:10:03.849Z,9.64
2023-04-22T05:12:30.293Z,9.63
2023-04-22T05:14:56.700Z,9.67
2023-04-22T05:17:23.152Z,9.71
2023-04-22T05:19:49.641Z,9.81
2023-04-22T05:22:17.899Z,9.88
2023-04-22T05:24:44.387Z,9.85
2023-04-22T05:27:11.015Z,9.90
2023-04-22T05:29:37.737Z,9.90
2023-04-22T05:32:04.577Z,10.01
2023-04-22T05:34:31.592Z,10.10
2023-04-22T05:36:58.005Z,10.20
2023-04-22T05:39:24.562Z,10.28
2023-04-22T05:41:51.055Z,10.39
2023-04-22T05:44:17.646Z,10.50
2023-04-22T05:46:44.147Z,10.69
2023-04-22T05:49:10.565Z,10.81
2023-04-22T05:51:37.019Z,10.96
2023-04-22T05:54:03.493Z,10.92
2023-04-22T05:56:30.163Z,10.89
2023-04-22T05:58:56.579Z,11.06
2023-04-22T06:01:24.749Z,11.21
2023-04-22T06:03:51.502Z,11.24
2023-04-22T06:06:18.679Z,11.45
2023-04-22T06:08:45.128Z,11.52
2023-04-22T06:11:11.557Z,11.81
2023-04-22T06:13:38.001Z,12.02
2023-04-22T06:16:05.309Z,12.38
2023-04-22T06:18:32.649Z,12.48
2023-04-22T06:20:59.067Z,12.63
2023-04-22T06:23:25.494Z,12.90
2023-04-22T06:25:51.994Z,12.86
2023-04-22T06:28:18.417Z,12.96
2023-04-22T06:30:44.904Z,13.33
2023-04-22T06:33:11.505Z,13.38
2023-04-22T06:35:38.013Z,13.97
2023-04-22T06:38:04.442Z,14.31
2023-04-22T06:40:30.894Z,14.84
2023-04-22T06:42:57.426Z,15.19
2023-04-22T06:45:24.913Z,15.44
2023-04-22T06:47:54.253Z,16.05
2023-04-22T06:50:20.795Z,16.41
2023-04-22T06:52:47.414Z,16.94
2023-04-22T06:55:13.866Z,17.17
2023-04-22T06:57:40.285Z,17.20
2023-04-22T07:00:11.132Z,16.82
2023-04-22T07:02:37.704Z,16.71
2023-04-22T07:05:04.416Z,16.79
2023-04-22T07:07:31.044Z,17.34
2023-04-22T07:09:57.426Z,17.36
2023-04-22T07:12:25.697Z,17.67
2023-04-22T07:14:52.165Z,18.17
2023-04-22T07:17:22.206Z,18.27
2023-04-22T07:19:48.991Z,17.87
2023-04-22T07:22:15.702Z,17.60
2023-04-22T07:24:42.142Z,17.58
2023-04-22T07:27:08.586Z,17.94
2023-04-22T07:29:35.088Z,18.20
2023-04-22T07:32:01.548Z,18.20
2023-04-22T07:34:28.000Z,17.83
2023-04-22T07:36:55.591Z,18.36
2023-04-22T07:39:22.715Z,18.59
2023-04-22T07:41:49.268Z,18.62
2023-04-22T07:44:18.469Z,18.90
2023-04-22T07:46:44.982Z,19.55
2023-04-22T07:49:13.945Z,19.75
2023-04-22T07:51:41.064Z,20.16
2023-04-22T07:54:07.675Z,20.22
2023-04-22T07:56:34.704Z,20.49
2023-04-22T07:59:01.193Z,20.41
2023-04-22T08:01:27.609Z,20.38
2023-04-22T08:03:54.216Z,20.41
2023-04-22T08:06:20.788Z,20.61
2023-04-22T08:08:47.275Z,20.68
2023-04-22T08:11:13.693Z,20.31
2023-04-22T08:13:40.078Z,20.25
2023-04-22T08:16:07.477Z,20.60
2023-04-22T08:18:34.016Z,20.48
2023-04-22T08:21:00.608Z,20.81
2023-04-22T08:23:27.079Z,20.08
2023-04-22T08:25:53.554Z,19.40
2023-04-22T08:28:20.055Z,19.02
2023-04-22T08:30:46.568Z,19.54
2023-04-22T08:33:12.990Z,19.94
2023-04-22T08:35:40.460Z,20.18
2023-04-22T08:38:06.926Z,20.33
2023-04-22T08:40:34.868Z,19.67
2023-04-22T08:43:01.468Z,19.11
2023-04-22T08:45:29.135Z,19.33
2023-04-22T08:47:56.760Z,19.53
2023-04-22T08:50:23.312Z,20.12
2023-04-22T08:52:49.758Z,20.50
2023-04-22T08:55:16.355Z,20.53
2023-04-22T08:57:44.084Z,21.02
2023-04-22T09:00:11.015Z,20.11
2023-04-22T09:02:41.969Z,20.76
2023-04-22T09:05:10.146Z,21.08
2023-04-22T09:07:38.420Z,21.44
2023-04-22T09:10:05.260Z,21.41
2023-04-22T09:12:31.664Z,21.46
2023-04-22T09:14:58.097Z,20.73
2023-04-22T09:17:43.539Z,21.22
2023-04-22T09:20:10.485Z,20.99
2023-04-22T09:22:45.440Z,20.51
2023-04-22T09:25:22.580Z,20.26
2023-04-22T09:27:53.332Z,20.23
2023-04-22T09:30:24.839Z,19.56
2023-04-22T09:32:59.771Z,20.03
2023-04-22T09:35:28.690Z,20.45
2023-04-22T09:37:55.833Z,20.78
2023-04-22T09:40:23.472Z,20.95
2023-04-22T09:42:51.704Z,20.06
2023-04-22T09:45:39.063Z,19.73
2023-04-22T09:48:12.532Z,19.79
2023-04-22T09:50:43.447Z,19.89
2023-04-22T09:53:14.217Z,20.43
2023-04-22T09:55:43.155Z,20.70
2023-04-22T09:58:11.872Z,20.75
2023-04-22T10:00:59.403Z,21.36
2023-04-22T10:03:26.178Z,21.51
2023-04-22T10:05:52.604Z,20.44
2023-04-22T10:08:19.072Z,20.30
2023-04-22T10:10:45.874Z,19.98
2023-04-22T10:13:12.578Z,20.11
2023-04-22T10:15:41.576Z,20.02
2023-04-22T10:18:11.894Z,20.12
2023-04-22T10:20:41.203Z,20.76
2023-04-22T10:23:15.869Z,20.68
2023-04-22T10:25:42.373Z,20.96
2023-04-22T10:28:10.597Z,21.12
2023-04-22T10:30:38.950Z,21.54
2023-04-22T10:33:34.754Z,21.29
2023-04-22T10:36:15.694Z,21.79
2023-04-22T10:39:02.054Z,21.70
2023-04-22T10:41:34.253Z,21.54
2023-04-22T10:44:05.660Z,21.19
2023-04-22T10:46:32.819Z,21.30
2023-04-22T10:49:06.747Z,21.11
2023-04-22T10:51:47.628Z,21.49
2023-04-22T10:54:31.966Z,21.57
2023-04-22T10:57:05.106Z,21.13
2023-04-22T10:59:33.610Z,21.25
2023-04-22T11:02:05.249Z,21.51
2023-04-22T11:04:32.402Z,21.85
2023-04-22T11:07:22.882Z,22.11
2023-04-22T11:10:00.040Z,21.78
2023-04-22T11:12:35.925Z,22.03
2023-04-22T11:15:10.411Z,22.06
2023-04-22T11:17:38.490Z,22.20
2023-04-22T11:20:07.352Z,22.29
2023-04-22T11:22:38.684Z,22.61
2023-04-22T11:25:11.968Z,22.41
2023-04-22T11:30:22.745Z,22.64
2023-04-22T11:32:58.629Z,22.78
2023-04-22T11:35:29.239Z,22.98
2023-04-22T11:38:06.338Z,22.95
2023-04-22T11:40:37.738Z,23.33
2023-04-22T11:43:07.282Z,23.67
2023-04-22T11:45:35.884Z,23.49
2023-04-22T11:48:04.633Z,22.85
2023-04-22T11:50:34.197Z,22.97
2023-04-22T11:53:21.121Z,23.09
2023-04-22T11:58:18.960Z,23.27
2023-04-22T12:00:51.709Z,23.46
2023-04-22T12:03:24.673Z,23.55
2023-04-22T12:06:09.315Z,23.32
2023-04-22T12:08:41.855Z,22.91
2023-04-22T12:11:12.620Z,22.33
2023-04-22T12:13:40.286Z,21.74
2023-04-22T12:16:14.728Z,21.75
2023-04-22T12:18:55.006Z,21.30
2023-04-22T12:21:28.367Z,21.33
2023-04-22T12:23:59.939Z,21.16
2023-04-22T12:26:27.824Z,21.09
2023-04-22T12:28:56.750Z,21.24
2023-04-22T12:31:23.940Z,21.01
2023-04-22T12:33:50.751Z,21.21
2023-04-22T12:36:19.130Z,21.25
2023-04-22T12:38:45.632Z,21.13
2023-04-22T12:41:12.348Z,20.69
2023-04-22T12:43:39.435Z,20.46
2023-04-22T12:46:07.533Z,20.22
2023-04-22T12:48:35.934Z,19.82
2023-04-22T12:51:03.346Z,19.90
2023-04-22T12:53:29.834Z,19.71
2023-04-22T12:55:57.706Z,19.60
2023-04-22T12:58:24.562Z,19.46
2023-04-22T13:00:51.010Z,19.14
2023-04-22T13:03:17.660Z,19.06
2023-04-22T13:05:45.366Z,18.86
2023-04-22T13:08:11.872Z,18.36
2023-04-22T13:10:38.349Z,18.12
2023-04-22T13:15:34.676Z,17.96
2023-04-22T13:18:05.382Z,17.97
2023-04-22T13:20:31.862Z,18.15
2023-04-22T13:22:58.539Z,18.26
2023-04-22T13:25:25.031Z,18.16
2023-04-22T13:27:51.452Z,18.12
2023-04-22T13:30:17.976Z,18.15
2023-04-22T13:32:44.636Z,18.17
2023-04-22T13:35:11.369Z,18.10
2023-04-22T13:37:37.803Z,18.33
2023-04-22T13:40:06.017Z,18.42
2023-04-22T13:42:32.605Z,18.48
2023-04-22T13:44:59.071Z,18.54
2023-04-22T13:47:25.533Z,18.60
2023-04-22T13:49:51.953Z,18.64
2023-04-22T13:52:18.383Z,18.63
2023-04-22T13:54:44.795Z,18.51
2023-04-22T13:57:11.214Z,18.49
2023-04-22T13:59:38.299Z,18.58
2023-04-22T14:02:04.892Z,18.53
2023-04-22T14:04:31.880Z,18.44
2023-04-22T14:06:58.336Z,18.49
2023-04-22T14:09:24.766Z,18.51
2023-04-22T14:11:51.231Z,18.59
2023-04-22T14:14:17.654Z,18.62
2023-04-22T14:16:44.176Z,18.62
2023-04-22T14:19:10.647Z,18.57
2023-04-22T14:21:37.043Z,18.73
2023-04-22T14:24:03.626Z,18.73
2023-04-22T14:26:32.516Z,18.74
2023-04-22T14:28:59.464Z,18.59
2023-04-22T14:31:26.273Z,18.44
2023-04-22T14:33:52.761Z,18.40
2023-04-22T14:36:19.191Z,18.32
2023-04-22T14:38:45.947Z,18.15
2023-04-22T14:41:12.634Z,18.15
2023-04-22T14:43:39.201Z,18.03
2023-04-22T14:46:05.689Z,18.01
2023-04-22T14:48:35.247Z,18.11
2023-04-22T14:51:01.994Z,18.06
2023-04-22T14:53:28.466Z,18.07
2023-04-22T14:55:55.791Z,17.92
2023-04-22T14:58:22.841Z,18.01
2023-04-22T15:00:50.198Z,18.09
2023-04-22T15:03:16.865Z,18.13
2023-04-22T15:05:43.849Z,18.14
2023-04-22T15:08:10.277Z,18.12
2023-04-22T15:10:36.840Z,18.06
2023-04-22T15:13:03.261Z,18.01
2023-04-22T15:15:29.724Z,17.90
2023-04-22T15:17:56.320Z,17.91
2023-04-22T15:20:22.936Z,17.93
2023-04-22T15:22:49.427Z,17.97
2023-04-22T15:25:18.070Z,18.02
2023-04-22T15:27:44.916Z,18.06
2023-04-22T15:30:11.786Z,18.09
2023-04-22T15:32:41.674Z,18.04
2023-04-22T15:35:08.880Z,17.98
2023-04-22T15:37:35.515Z,18.06
2023-04-22T15:40:02.091Z,18.10
2023-04-22T15:42:28.468Z,18.13
2023-04-22T15:44:54.897Z,18.06
2023-04-22T15:47:21.349Z,17.85
2023-04-22T15:49:49.431Z,17.77
2023-04-22T15:52:17.618Z,17.73
2023-04-22T15:54:44.101Z,17.73
2023-04-22T15:57:10.803Z,17.66
2023-04-22T15:59:37.443Z,17.48
2023-04-22T16:02:04.275Z,17.36
2023-04-22T16:04:30.900Z,17.02
2023-04-22T16:06:59.189Z,16.97
2023-04-22T16:09:26.152Z,16.86
2023-04-22T16:11:52.640Z,16.76
2023-04-22T16:14:19.063Z,16.65
2023-04-22T16:16:45.834Z,16.58
2023-04-22T16:19:12.674Z,16.50
2023-04-22T16:21:39.464Z,16.48
2023-04-22T16:24:06.178Z,16.39
2023-04-22T16:26:32.635Z,16.35
2023-04-22T16:28:59.076Z,16.24
2023-04-22T16:31:25.631Z,16.23
2023-04-22T16:33:52.147Z,16.08
2023-04-22T16:36:18.571Z,15.92
2023-04-22T16:38:45.030Z,15.92
2023-04-22T16:41:11.746Z,15.94
2023-04-22T16:43:40.899Z,15.91
2023-04-22T16:46:07.897Z,15.66
2023-04-22T16:48:34.456Z,15.79
2023-04-22T16:51:00.860Z,15.79
2023-04-22T16:53:27.337Z,15.71
2023-04-22T16:55:53.747Z,15.70
2023-04-22T16:58:20.171Z,15.65
2023-04-22T17:00:47.693Z,15.52
2023-04-22T17:03:14.571Z,15.54
2023-04-22T17:05:41.215Z,15.45
2023-04-22T17:08:07.774Z,15.41
2023-04-22T17:10:34.790Z,15.35
2023-04-22T17:13:01.420Z,15.35
2023-04-22T17:15:27.818Z,15.22
2023-04-22T17:17:54.277Z,15.21
2023-04-22T17:20:20.763Z,15.14
2023-04-22T17:22:47.577Z,14.69
2023-04-22T17:25:14.005Z,15.06
2023-04-22T17:27:40.437Z,15.11
2023-04-22T17:30:07.561Z,15.00
2023-04-22T17:32:34.729Z,15.00
2023-04-22T17:35:02.741Z,14.94
2023-04-22T17:37:29.160Z,14.92
2023-04-22T17:39:56.307Z,14.91
2023-04-22T17:44:50.606Z,14.89
2023-04-22T17:47:17.214Z,14.87
2023-04-22T17:49:43.901Z,14.82
2023-04-22T17:52:10.546Z,14.81
2023-04-22T17:54:37.021Z,14.78
2023-04-22T17:57:03.633Z,14.76
2023-04-22T17:59:30.201Z,14.80
2023-04-22T18:01:56.678Z,14.44
2023-04-22T18:04:23.259Z,14.86
2023-04-22T18:06:49.962Z,14.88
2023-04-22T18:09:16.374Z,14.87
2023-04-22T18:11:42.823Z,14.85
2023-04-22T18:14:09.867Z,14.81
2023-04-22T18:16:36.343Z,14.75
2023-04-22T18:19:04.126Z,14.79
2023-04-22T18:21:31.377Z,14.69
2023-04-22T18:23:57.841Z,14.83
2023-04-22T18:26:24.410Z,14.74
2023-04-22T18:28:50.904Z,14.69
2023-04-22T18:31:17.374Z,14.68
2023-04-22T18:33:43.800Z,14.70
2023-04-22T18:36:10.243Z,14.69
2023-04-22T18:38:38.594Z,14.71
2023-04-22T18:41:05.740Z,14.75
2023-04-22T18:43:32.252Z,14.73
2023-04-22T18:45:58.677Z,14.74
2023-04-22T18:48:25.133Z,14.59
2023-04-22T18:50:51.556Z,14.61
2023-04-22T18:53:17.976Z,14.53
2023-04-22T18:55:44.586Z,14.37
2023-04-22T18:58:11.045Z,14.18
2023-04-22T19:00:39.062Z,14.07
2023-04-22T19:03:05.808Z,14.14
2023-04-22T19:05:32.353Z,14.13
2023-04-22T19:07:58.803Z,13.90
2023-04-22T19:10:25.218Z,13.78
2023-04-22T19:12:51.757Z,13.71
2023-04-22T19:15:21.204Z,13.66
2023-04-22T19:17:47.834Z,13.49
2023-04-22T19:20:14.380Z,13.40
2023-04-22T19:22:41.139Z,13.34
2023-04-22T19:25:08.050Z,13.20
2023-04-22T19:27:34.585Z,13.12
2023-04-22T19:30:01.127Z,12.80
2023-04-22T19:32:27.620Z,12.81
2023-04-22T19:34:54.138Z,12.91
2023-04-22T19:37:21.948Z,12.97
2023-04-22T19:39:48.592Z,12.80
2023-04-22T19:42:15.073Z,12.74
2023-04-22T19:44:46.496Z,12.79
2023-04-22T19:47:13.421Z,12.82
2023-04-22T19:49:41.139Z,12.75
2023-04-22T19:52:11.021Z,12.82
2023-04-22T19:54:41.306Z,12.89
2023-04-22T19:57:08.128Z,12.83
2023-04-22T19:59:34.906Z,12.70
2023-04-22T20:02:01.754Z,12.66
2023-04-22T20:04:28.633Z,12.69
2023-04-22T20:06:55.326Z,12.62
2023-04-22T20:09:22.173Z,12.66
2023-04-22T20:11:48.707Z,12.66
2023-04-22T20:14:15.983Z,12.57
2023-04-22T20:16:42.708Z,12.49
2023-04-22T20:19:11.274Z,12.55
2023-04-22T20:21:39.917Z,12.54
2023-04-22T20:24:07.692Z,12.50
2023-04-22T20:26:34.983Z,12.48
2023-04-22T20:29:02.544Z,12.47
2023-04-22T20:31:29.196Z,12.38
2023-04-22T20:33:57.158Z,12.32
2023-04-22T20:36:24.156Z,12.35
2023-04-22T20:38:54.856Z,12.26
2023-04-22T20:41:24.472Z,12.31
2023-04-22T20:43:51.529Z,12.19
2023-04-22T20:46:18.839Z,12.21
2023-04-22T20:48:46.590Z,12.14
2023-04-22T20:51:13.016Z,12.08
2023-04-22T20:53:39.969Z,11.99
2023-04-22T20:56:07.786Z,11.96
2023-04-22T20:58:34.181Z,11.92
2023-04-22T21:01:00.733Z,11.85
2023-04-22T21:03:27.590Z,11.82
2023-04-22T21:05:54.854Z,11.74
2023-04-22T21:08:23.044Z,11.77
2023-04-22T21:10:52.543Z,11.73
2023-04-22T21:13:19.254Z,11.70
2023-04-22T21:15:58.959Z,11.26
2023-04-22T21:18:26.536Z,11.68
2023-04-22T21:20:53.278Z,11.46
2023-04-22T21:23:22.626Z,11.65
2023-04-22T21:25:49.360Z,11.49
2023-04-22T21:28:17.324Z,11.57
2023-04-22T21:30:44.261Z,11.37
2023-04-22T21:33:10.840Z,11.59
2023-04-22T21:35:39.203Z,11.52
2023-04-22T21:38:05.962Z,11.53
2023-04-22T21:40:32.514Z,11.57
2023-04-22T21:43:00.291Z,11.60
2023-04-22T21:45:30.880Z,11.58
2023-04-22T21:47:59.191Z,11.63
2023-04-22T21:50:26.443Z,11.62
2023-04-22T21:52:53.165Z,11.61
2023-04-22T21:55:19.691Z,11.60
2023-04-22T21:57:46.096Z,11.61
2023-04-22T22:00:17.259Z,11.57
2023-04-22T22:02:44.976Z,11.56
2023-04-22T22:05:11.969Z,11.64
2023-04-22T22:07:40.614Z,11.60
2023-04-22T22:10:09.059Z,11.46
2023-04-22T22:12:36.033Z,11.59
2023-04-22T22:15:03.181Z,11.56
2023-04-22T22:17:29.939Z,11.55
2023-04-22T22:19:57.332Z,11.52
2023-04-22T22:22:23.915Z,11.48
2023-04-22T22:24:52.641Z,11.48
2023-04-22T22:27:19.422Z,11.46
2023-04-22T22:29:46.544Z,11.40
2023-04-22T22:32:13.319Z,11.43
2023-04-22T22:34:40.250Z,11.40
2023-04-22T22:37:06.975Z,11.39
2023-04-22T22:39:33.380Z,11.34
2023-04-22T22:41:59.848Z,11.36
2023-04-22T22:44:26.248Z,11.22
2023-04-22T22:46:52.759Z,11.33
2023-04-22T22:49:19.211Z,11.29
2023-04-22T22:51:45.638Z,11.11
2023-04-22T22:54:12.128Z,11.28
2023-04-22T22:56:38.548Z,11.23
2023-04-22T22:59:05.066Z,11.17
2023-04-22T23:01:31.797Z,11.15
2023-04-22T23:03:58.575Z,11.13
2023-04-22T23:06:25.298Z,11.09
2023-04-22T23:08:51.692Z,11.04
2023-04-22T23:11:18.169Z,11.02
2023-04-22T23:13:44.599Z,10.99
2023-04-22T23:16:11.220Z,10.95
2023-04-22T23:18:38.024Z,10.96
2023-04-22T23:21:05.964Z,10.91
2023-04-22T23:23:32.713Z,10.84
2023-04-22T23:26:00.821Z,10.83
2023-04-22T23:28:27.767Z,10.75
2023-04-22T23:30:55.791Z,10.59
2023-04-22T23:33:24.593Z,10.75
2023-04-22T23:35:58.722Z,10.60
2023-04-22T23:38:25.145Z,10.66
2023-04-22T23:40:51.568Z,10.63
2023-04-22T23:43:17.975Z,10.54
2023-04-22T23:45:45.190Z,10.58
2023-04-22T23:48:11.636Z,10.58
2023-04-22T23:50:38.091Z,10.63
2023-04-22T23:53:04.505Z,10.67
2023-04-22T23:55:31.351Z,10.67
2023-04-22T23:57:58.008Z,10.64
